sensor_id;sensor_type;location;lat;lon;timestamp;pressure;altitude;pressure_sealevel;temperature;humidity
13705;BME280;6924;52.122;9.952;2023-03-14T00:01:20;98080.50;;;9.75;100.00
13705;BME280;6924;52.122;9.952;2023-03-14T00:03:46;98077.72;;;9.78;100.00
13705;BME280;6924;52.122;9.952;2023-03-14T00:06:14;98069.63;;;9.77;100.00
13705;BME280;6924;52.122;9.952;2023-03-14T00:08:41;98057.16;;;9.78;100.00
13705;BME280;6924;52.122;9.952;2023-03-14T00:11:10;98051.88;;;9.76;100.00
13705;BME280;6924;52.122;9.952;2023-03-14T00:13:36;98055.16;;;9.78;100.00
13705;BME280;6924;52.122;9.952;2023-03-14T00:16:04;98051.59;;;9.81;100.00
13705;BME280;6924;52.122;9.952;2023-03-14T00:18:30;98045.50;;;9.79;100.00
13705;BME280;6924;52.122;9.952;2023-03-14T00:20:57;98029.00;;;9.81;100.00
13705;BME280;6924;52.122;9.952;2023-03-14T00:23:26;98017.31;;;9.83;100.00
13705;BME280;6924;52.122;9.952;2023-03-14T00:25:52;98016.50;;;9.82;100.00
13705;BME280;6924;52.122;9.952;2023-03-14T00:28:19;98043.50;;;9.80;100.00
13705;BME280;6924;52.122;9.952;2023-03-14T00:30:45;98056.34;;;9.77;100.00
13705;BME280;6924;52.122;9.952;2023-03-14T00:33:12;98041.84;;;9.79;100.00
13705;BME280;6924;52.122;9.952;2023-03-14T00:35:38;98037.38;;;9.78;100.00
13705;BME280;6924;52.122;9.952;2023-03-14T00:38:04;98043.13;;;9.81;100.00
13705;BME280;6924;52.122;9.952;2023-03-14T00:40:32;98057.59;;;9.80;100.00
13705;BME280;6924;52.122;9.952;2023-03-14T00:42:58;98066.44;;;9.78;100.00
13705;BME280;6924;52.122;9.952;2023-03-14T00:45:25;98066.44;;;9.78;100.00
13705;BME280;6924;52.122;9.952;2023-03-14T00:47:51;98076.09;;;9.77;100.00
13705;BME280;6924;52.122;9.952;2023-03-14T00:50:17;98072.03;;;9.75;100.00
13705;BME280;6924;52.122;9.952;2023-03-14T00:52:44;98070.91;;;9.79;100.00
13705;BME280;6924;52.122;9.952;2023-03-14T00:55:11;98062.03;;;9.81;100.00
13705;BME280;6924;52.122;9.952;2023-03-14T00:57:39;98068.53;;;9.81;100.00
13705;BME280;6924;52.122;9.952;2023-03-14T01:00:06;98045.94;;;9.81;100.00
13705;BME280;6924;52.122;9.952;2023-03-14T01:02:36;98035.91;;;9.84;100.00
13705;BME280;6924;52.122;9.952;2023-03-14T01:05:03;98042.47;;;9.88;99.90
13705;BME280;6924;52.122;9.952;2023-03-14T01:07:29;98046.44;;;9.87;100.00
13705;BME280;6924;52.122;9.952;2023-03-14T01:09:56;98037.53;;;9.85;99.79
13705;BME280;6924;52.122;9.952;2023-03-14T01:12:22;98032.69;;;9.85;99.56
13705;BME280;6924;52.122;9.952;2023-03-14T01:14:50;98034.34;;;9.86;99.21
13705;BME280;6924;52.122;9.952;2023-03-14T01:17:16;98031.22;;;9.91;98.24
13705;BME280;6924;52.122;9.952;2023-03-14T01:19:42;98035.25;;;9.90;98.53
13705;BME280;6924;52.122;9.952;2023-03-14T01:22:09;98054.63;;;9.92;97.99
13705;BME280;6924;52.122;9.952;2023-03-14T01:24:36;98038.06;;;9.90;97.83
13705;BME280;6924;52.122;9.952;2023-03-14T01:27:03;98011.00;;;9.89;97.93
13705;BME280;6924;52.122;9.952;2023-03-14T01:29:29;98007.00;;;9.90;97.77
13705;BME280;6924;52.122;9.952;2023-03-14T01:31:57;98006.13;;;9.86;97.32
13705;BME280;6924;52.122;9.952;2023-03-14T01:34:23;98000.47;;;9.86;97.90
13705;BME280;6924;52.122;9.952;2023-03-14T01:36:49;98015.75;;;9.85;97.21
13705;BME280;6924;52.122;9.952;2023-03-14T01:39:16;98010.09;;;9.85;97.15
13705;BME280;6924;52.122;9.952;2023-03-14T01:41:42;98017.72;;;9.81;97.38
13705;BME280;6924;52.122;9.952;2023-03-14T01:44:10;98028.47;;;9.76;97.41
13705;BME280;6924;52.122;9.952;2023-03-14T01:46:38;98043.78;;;9.75;97.67
13705;BME280;6924;52.122;9.952;2023-03-14T01:49:22;98038.97;;;9.75;98.16
13705;BME280;6924;52.122;9.952;2023-03-14T01:51:53;98023.19;;;9.74;97.77
13705;BME280;6924;52.122;9.952;2023-03-14T01:54:25;98002.97;;;9.72;97.73
13705;BME280;6924;52.122;9.952;2023-03-14T01:56:57;97997.34;;;9.72;97.92
13705;BME280;6924;52.122;9.952;2023-03-14T01:59:25;97991.25;;;9.70;97.85
13705;BME280;6924;52.122;9.952;2023-03-14T02:01:54;97973.06;;;9.67;97.46
13705;BME280;6924;52.122;9.952;2023-03-14T02:04:23;97990.28;;;9.62;97.60
13705;BME280;6924;52.122;9.952;2023-03-14T02:06:54;97980.28;;;9.65;97.72
13705;BME280;6924;52.122;9.952;2023-03-14T02:09:22;97976.19;;;9.62;97.51
13705;BME280;6924;52.122;9.952;2023-03-14T02:11:49;97980.94;;;9.58;97.33
13705;BME280;6924;52.122;9.952;2023-03-14T02:14:26;97979.22;;;9.54;97.52
13705;BME280;6924;52.122;9.952;2023-03-14T02:16:54;97981.25;;;9.53;96.93
13705;BME280;6924;52.122;9.952;2023-03-14T02:19:29;97985.63;;;9.50;97.36
13705;BME280;6924;52.122;9.952;2023-03-14T02:22:02;97984.78;;;9.50;96.41
13705;BME280;6924;52.122;9.952;2023-03-14T02:24:38;97997.38;;;9.52;95.55
13705;BME280;6924;52.122;9.952;2023-03-14T02:27:11;98004.53;;;9.50;95.48
13705;BME280;6924;52.122;9.952;2023-03-14T02:29:42;98005.28;;;9.47;95.80
13705;BME280;6924;52.122;9.952;2023-03-14T02:32:12;98014.13;;;9.45;95.72
13705;BME280;6924;52.122;9.952;2023-03-14T02:34:40;97998.03;;;9.46;95.27
13705;BME280;6924;52.122;9.952;2023-03-14T02:37:09;98000.47;;;9.47;94.45
13705;BME280;6924;52.122;9.952;2023-03-14T02:39:38;98002.03;;;9.45;94.33
13705;BME280;6924;52.122;9.952;2023-03-14T02:42:05;97989.19;;;9.47;94.02
13705;BME280;6924;52.122;9.952;2023-03-14T02:44:33;97989.13;;;9.44;93.53
13705;BME280;6924;52.122;9.952;2023-03-14T02:47:00;97977.75;;;9.40;93.85
13705;BME280;6924;52.122;9.952;2023-03-14T02:49:29;97983.38;;;9.40;93.32
13705;BME280;6924;52.122;9.952;2023-03-14T02:51:56;97989.78;;;9.37;93.26
13705;BME280;6924;52.122;9.952;2023-03-14T02:54:22;97983.69;;;9.35;93.99
13705;BME280;6924;52.122;9.952;2023-03-14T02:56:49;97982.47;;;9.36;93.42
13705;BME280;6924;52.122;9.952;2023-03-14T02:59:15;97973.72;;;9.41;93.73
13705;BME280;6924;52.122;9.952;2023-03-14T03:01:43;97962.38;;;9.38;93.65
13705;BME280;6924;52.122;9.952;2023-03-14T03:04:09;97970.84;;;9.38;94.09
13705;BME280;6924;52.122;9.952;2023-03-14T03:06:36;97976.13;;;9.39;93.36
13705;BME280;6924;52.122;9.952;2023-03-14T03:09:03;97973.91;;;9.48;93.46
13705;BME280;6924;52.122;9.952;2023-03-14T03:11:29;97979.53;;;9.48;93.05
13705;BME280;6924;52.122;9.952;2023-03-14T03:13:56;97969.72;;;9.42;94.18
13705;BME280;6924;52.122;9.952;2023-03-14T03:16:23;97970.22;;;9.48;93.15
13705;BME280;6924;52.122;9.952;2023-03-14T03:18:50;97963.06;;;9.50;93.41
13705;BME280;6924;52.122;9.952;2023-03-14T03:21:17;97967.94;;;9.54;93.12
13705;BME280;6924;52.122;9.952;2023-03-14T03:23:44;97960.22;;;9.50;92.98
13705;BME280;6924;52.122;9.952;2023-03-14T03:26:10;97949.75;;;9.51;92.83
13705;BME280;6924;52.122;9.952;2023-03-14T03:28:36;97940.03;;;9.48;93.36
13705;BME280;6924;52.122;9.952;2023-03-14T03:31:07;97943.22;;;9.47;93.47
13705;BME280;6924;52.122;9.952;2023-03-14T03:33:33;97948.88;;;9.47;93.39
13705;BME280;6924;52.122;9.952;2023-03-14T03:36:01;97942.31;;;9.43;93.85
13705;BME280;6924;52.122;9.952;2023-03-14T03:38:27;97945.59;;;9.45;93.32
13705;BME280;6924;52.122;9.952;2023-03-14T03:40:54;97939.06;;;9.41;93.27
13705;BME280;6924;52.122;9.952;2023-03-14T03:43:20;97927.72;;;9.37;93.36
13705;BME280;6924;52.122;9.952;2023-03-14T03:45:46;97933.34;;;9.37;93.96
13705;BME280;6924;52.122;9.952;2023-03-14T03:48:13;97932.25;;;9.42;93.24
13705;BME280;6924;52.122;9.952;2023-03-14T03:50:44;97931.78;;;9.40;93.04
13705;BME280;6924;52.122;9.952;2023-03-14T03:53:12;97938.25;;;9.40;92.48
13705;BME280;6924;52.122;9.952;2023-03-14T03:55:40;97939.38;;;9.36;93.25
13705;BME280;6924;52.122;9.952;2023-03-14T03:58:07;97934.38;;;9.29;93.74
13705;BME280;6924;52.122;9.952;2023-03-14T04:00:34;97943.16;;;9.24;94.15
13705;BME280;6924;52.122;9.952;2023-03-14T04:03:00;97947.22;;;9.26;93.96
13705;BME280;6924;52.122;9.952;2023-03-14T04:05:27;97953.31;;;9.28;94.79
13705;BME280;6924;52.122;9.952;2023-03-14T04:07:53;97947.69;;;9.28;94.74
13705;BME280;6924;52.122;9.952;2023-03-14T04:10:21;97959.78;;;9.29;96.60
13705;BME280;6924;52.122;9.952;2023-03-14T04:12:47;97971.88;;;9.29;97.02
13705;BME280;6924;52.122;9.952;2023-03-14T04:15:13;97983.34;;;9.21;100.00
13705;BME280;6924;52.122;9.952;2023-03-14T04:17:40;97993.50;;;9.06;100.00
13705;BME280;6924;52.122;9.952;2023-03-14T04:20:07;97987.44;;;8.88;100.00
13705;BME280;6924;52.122;9.952;2023-03-14T04:22:35;97989.44;;;8.87;100.00
13705;BME280;6924;52.122;9.952;2023-03-14T04:25:02;97988.91;;;8.82;100.00
13705;BME280;6924;52.122;9.952;2023-03-14T04:27:30;97967.66;;;8.68;100.00
13705;BME280;6924;52.122;9.952;2023-03-14T04:29:56;97969.84;;;8.59;100.00
13705;BME280;6924;52.122;9.952;2023-03-14T04:32:23;97957.94;;;8.50;100.00
13705;BME280;6924;52.122;9.952;2023-03-14T04:34:50;97959.19;;;8.37;100.00
13705;BME280;6924;52.122;9.952;2023-03-14T04:37:18;97947.66;;;8.26;100.00
13705;BME280;6924;52.122;9.952;2023-03-14T04:39:45;97959.09;;;8.17;100.00
13705;BME280;6924;52.122;9.952;2023-03-14T04:42:12;97948.28;;;8.19;100.00
13705;BME280;6924;52.122;9.952;2023-03-14T04:44:39;97945.13;;;8.21;100.00
13705;BME280;6924;52.122;9.952;2023-03-14T04:47:08;97937.66;;;8.13;100.00
13705;BME280;6924;52.122;9.952;2023-03-14T04:49:34;97943.75;;;8.15;100.00
13705;BME280;6924;52.122;9.952;2023-03-14T04:52:01;97946.00;;;8.09;100.00
13705;BME280;6924;52.122;9.952;2023-03-14T04:54:27;97944.66;;;8.03;100.00
13705;BME280;6924;52.122;9.952;2023-03-14T04:56:54;97932.50;;;7.99;100.00
13705;BME280;6924;52.122;9.952;2023-03-14T04:59:20;97934.03;;;7.96;100.00
13705;BME280;6924;52.122;9.952;2023-03-14T05:01:48;97939.09;;;7.91;100.00
13705;BME280;6924;52.122;9.952;2023-03-14T05:04:15;97935.13;;;7.92;100.00
13705;BME280;6924;52.122;9.952;2023-03-14T05:06:41;97940.19;;;7.86;100.00
13705;BME280;6924;52.122;9.952;2023-03-14T05:09:08;97934.44;;;7.82;100.00
13705;BME280;6924;52.122;9.952;2023-03-14T05:11:34;97930.75;;;7.78;100.00
13705;BME280;6924;52.122;9.952;2023-03-14T05:14:00;97930.75;;;7.78;100.00
13705;BME280;6924;52.122;9.952;2023-03-14T05:16:27;97939.09;;;7.75;100.00
13705;BME280;6924;52.122;9.952;2023-03-14T05:18:54;97942.34;;;7.77;100.00
13705;BME280;6924;52.122;9.952;2023-03-14T05:21:21;97929.91;;;7.78;100.00
13705;BME280;6924;52.122;9.952;2023-03-14T05:23:47;97921.38;;;7.74;100.00
13705;BME280;6924;52.122;9.952;2023-03-14T05:26:14;97917.03;;;7.77;100.00
13705;BME280;6924;52.122;9.952;2023-03-14T05:28:41;97916.22;;;7.76;100.00
13705;BME280;6924;52.122;9.952;2023-03-14T05:31:09;97911.75;;;7.75;100.00
13705;BME280;6924;52.122;9.952;2023-03-14T05:33:35;97912.50;;;7.72;100.00
13705;BME280;6924;52.122;9.952;2023-03-14T05:36:03;97911.56;;;7.68;100.00
13705;BME280;6924;52.122;9.952;2023-03-14T05:38:30;97909.03;;;7.63;100.00
13705;BME280;6924;52.122;9.952;2023-03-14T05:40:56;97906.84;;;7.56;100.00
13705;BME280;6924;52.122;9.952;2023-03-14T05:43:23;97906.38;;;7.54;100.00
13705;BME280;6924;52.122;9.952;2023-03-14T05:45:49;97903.19;;;7.56;100.00
13705;BME280;6924;52.122;9.952;2023-03-14T05:48:16;97904.84;;;7.57;100.00
13705;BME280;6924;52.122;9.952;2023-03-14T05:50:43;97902.38;;;7.55;100.00
13705;BME280;6924;52.122;9.952;2023-03-14T05:53:11;97904.72;;;7.53;100.00
13705;BME280;6924;52.122;9.952;2023-03-14T05:55:38;97909.53;;;7.53;100.00
13705;BME280;6924;52.122;9.952;2023-03-14T05:58:04;97900.28;;;7.52;100.00
13705;BME280;6924;52.122;9.952;2023-03-14T06:00:31;97911.91;;;7.51;100.00
13705;BME280;6924;52.122;9.952;2023-03-14T06:02:57;97902.19;;;7.48;100.00
13705;BME280;6924;52.122;9.952;2023-03-14T06:05:24;97902.06;;;7.44;100.00
13705;BME280;6924;52.122;9.952;2023-03-14T06:07:50;97903.28;;;7.43;100.00
13705;BME280;6924;52.122;9.952;2023-03-14T06:10:18;97907.69;;;7.44;100.00
13705;BME280;6924;52.122;9.952;2023-03-14T06:12:44;97911.31;;;7.45;100.00
13705;BME280;6924;52.122;9.952;2023-03-14T06:15:11;97919.88;;;7.49;100.00
13705;BME280;6924;52.122;9.952;2023-03-14T06:17:37;97919.16;;;7.52;100.00
13705;BME280;6924;52.122;9.952;2023-03-14T06:20:04;97923.34;;;7.58;100.00
13705;BME280;6924;52.122;9.952;2023-03-14T06:22:31;97915.47;;;7.63;100.00
13705;BME280;6924;52.122;9.952;2023-03-14T06:24:57;97928.56;;;7.72;100.00
13705;BME280;6924;52.122;9.952;2023-03-14T06:27:25;97924.75;;;7.80;100.00
13705;BME280;6924;52.122;9.952;2023-03-14T06:29:51;97933.00;;;7.89;100.00
13705;BME280;6924;52.122;9.952;2023-03-14T06:32:18;97928.75;;;7.95;100.00
13705;BME280;6924;52.122;9.952;2023-03-14T06:34:45;97944.09;;;7.97;100.00
13705;BME280;6924;52.122;9.952;2023-03-14T06:37:12;97940.59;;;8.00;100.00
13705;BME280;6924;52.122;9.952;2023-03-14T06:39:38;97944.03;;;8.10;100.00
13705;BME280;6924;52.122;9.952;2023-03-14T06:42:05;97943.19;;;8.09;100.00
13705;BME280;6924;52.122;9.952;2023-03-14T06:44:33;97940.75;;;8.07;100.00
13705;BME280;6924;52.122;9.952;2023-03-14T06:46:59;97936.69;;;8.05;100.00
13705;BME280;6924;52.122;9.952;2023-03-14T06:49:26;97946.28;;;8.04;100.00
13705;BME280;6924;52.122;9.952;2023-03-14T06:51:52;97941.56;;;8.08;100.00
13705;BME280;6924;52.122;9.952;2023-03-14T06:54:20;97939.56;;;8.08;100.00
13705;BME280;6924;52.122;9.952;2023-03-14T06:56:47;97950.38;;;8.06;100.00
13705;BME280;6924;52.122;9.952;2023-03-14T06:59:13;97940.66;;;8.04;100.00
13705;BME280;6924;52.122;9.952;2023-03-14T07:01:41;97944.38;;;8.08;100.00
13705;BME280;6924;52.122;9.952;2023-03-14T07:04:10;97936.69;;;8.05;100.00
13705;BME280;6924;52.122;9.952;2023-03-14T07:06:37;97947.56;;;8.06;100.00
13705;BME280;6924;52.122;9.952;2023-03-14T07:09:04;97945.19;;;8.08;100.00
13705;BME280;6924;52.122;9.952;2023-03-14T07:11:31;97942.84;;;8.11;100.00
13705;BME280;6924;52.122;9.952;2023-03-14T07:13:58;97941.97;;;8.22;100.00
13705;BME280;6924;52.122;9.952;2023-03-14T07:16:24;97936.41;;;8.26;100.00
13705;BME280;6924;52.122;9.952;2023-03-14T07:18:55;97937.41;;;8.34;100.00
13705;BME280;6924;52.122;9.952;2023-03-14T07:21:21;97931.50;;;8.39;100.00
13705;BME280;6924;52.122;9.952;2023-03-14T07:23:47;97932.13;;;8.48;100.00
13705;BME280;6924;52.122;9.952;2023-03-14T07:26:14;97926.31;;;8.57;100.00
13705;BME280;6924;52.122;9.952;2023-03-14T07:28:41;97923.75;;;8.67;100.00
13705;BME280;6924;52.122;9.952;2023-03-14T07:31:07;97920.81;;;8.80;100.00
13705;BME280;6924;52.122;9.952;2023-03-14T07:33:34;97914.91;;;8.85;100.00
13705;BME280;6924;52.122;9.952;2023-03-14T07:36:02;97919.56;;;8.97;100.00
13705;BME280;6924;52.122;9.952;2023-03-14T07:38:29;97902.91;;;9.07;100.00
13705;BME280;6924;52.122;9.952;2023-03-14T07:40:59;97914.41;;;9.18;100.00
13705;BME280;6924;52.122;9.952;2023-03-14T07:43:26;97911.00;;;9.28;100.00
13705;BME280;6924;52.122;9.952;2023-03-14T07:45:52;97900.97;;;9.31;100.00
13705;BME280;6924;52.122;9.952;2023-03-14T07:48:18;97898.38;;;9.42;100.00
13705;BME280;6924;52.122;9.952;2023-03-14T07:50:48;97901.44;;;9.52;100.00
13705;BME280;6924;52.122;9.952;2023-03-14T07:53:15;97901.56;;;9.60;100.00
13705;BME280;6924;52.122;9.952;2023-03-14T07:55:42;97893.91;;;9.60;100.00
13705;BME280;6924;52.122;9.952;2023-03-14T07:58:08;97892.03;;;9.68;100.00
13705;BME280;6924;52.122;9.952;2023-03-14T08:00:35;97886.22;;;9.80;100.00
13705;BME280;6924;52.122;9.952;2023-03-14T08:03:01;97896.25;;;10.01;100.00
13705;BME280;6924;52.122;9.952;2023-03-14T08:05:28;97890.25;;;10.25;100.00
13705;BME280;6924;52.122;9.952;2023-03-14T08:07:54;97886.78;;;10.36;100.00
13705;BME280;6924;52.122;9.952;2023-03-14T08:10:22;97884.78;;;10.36;100.00
13705;BME280;6924;52.122;9.952;2023-03-14T08:12:49;97883.53;;;10.33;98.74
13705;BME280;6924;52.122;9.952;2023-03-14T08:15:15;97878.16;;;10.28;98.58
13705;BME280;6924;52.122;9.952;2023-03-14T08:17:42;97882.94;;;10.24;97.71
13705;BME280;6924;52.122;9.952;2023-03-14T08:20:10;97880.38;;;10.16;94.73
13705;BME280;6924;52.122;9.952;2023-03-14T08:22:38;97877.91;;;10.14;96.86
13705;BME280;6924;52.122;9.952;2023-03-14T08:25:05;97895.38;;;10.20;97.24
13705;BME280;6924;52.122;9.952;2023-03-14T08:27:33;97875.69;;;10.23;96.76
13705;BME280;6924;52.122;9.952;2023-03-14T08:30:00;97897.22;;;10.31;98.16
13705;BME280;6924;52.122;9.952;2023-03-14T08:32:26;97890.88;;;10.38;95.10
13705;BME280;6924;52.122;9.952;2023-03-14T08:34:53;97898.53;;;10.38;95.84
13705;BME280;6924;52.122;9.952;2023-03-14T08:37:19;97898.69;;;10.48;96.16
13705;BME280;6924;52.122;9.952;2023-03-14T08:39:46;97897.56;;;10.53;95.60
13705;BME280;6924;52.122;9.952;2023-03-14T08:42:12;97908.84;;;10.49;93.74
13705;BME280;6924;52.122;9.952;2023-03-14T08:44:40;97906.75;;;10.46;93.89
13705;BME280;6924;52.122;9.952;2023-03-14T08:47:06;97898.34;;;10.50;95.62
13705;BME280;6924;52.122;9.952;2023-03-14T08:49:33;97901.16;;;10.50;95.89
13705;BME280;6924;52.122;9.952;2023-03-14T08:52:01;97893.66;;;10.61;96.00
13705;BME280;6924;52.122;9.952;2023-03-14T08:54:28;97900.72;;;10.74;92.62
13705;BME280;6924;52.122;9.952;2023-03-14T08:56:55;97897.72;;;10.90;94.90
13705;BME280;6924;52.122;9.952;2023-03-14T08:59:21;97896.28;;;11.04;95.34
13705;BME280;6924;52.122;9.952;2023-03-14T09:01:49;97906.06;;;11.10;93.88
13705;BME280;6924;52.122;9.952;2023-03-14T09:04:16;97910.16;;;11.12;94.76
13705;BME280;6924;52.122;9.952;2023-03-14T09:06:42;97910.06;;;11.05;92.64
13705;BME280;6924;52.122;9.952;2023-03-14T09:09:09;97911.66;;;11.03;92.80
13705;BME280;6924;52.122;9.952;2023-03-14T09:11:35;97916.19;;;11.11;95.34
13705;BME280;6924;52.122;9.952;2023-03-14T09:14:01;97919.84;;;11.11;94.48
13705;BME280;6924;52.122;9.952;2023-03-14T09:16:28;97917.03;;;11.15;94.97
13705;BME280;6924;52.122;9.952;2023-03-14T09:18:55;97907.59;;;11.04;93.75
13705;BME280;6924;52.122;9.952;2023-03-14T09:21:24;97916.97;;;11.08;93.76
13705;BME280;6924;52.122;9.952;2023-03-14T09:23:51;97919.84;;;11.11;93.89
13705;BME280;6924;52.122;9.952;2023-03-14T09:26:17;97917.81;;;11.12;93.19
13705;BME280;6924;52.122;9.952;2023-03-14T09:28:44;97915.75;;;11.09;93.86
13705;BME280;6924;52.122;9.952;2023-03-14T09:31:11;97921.41;;;11.09;92.89
13705;BME280;6924;52.122;9.952;2023-03-14T09:33:38;97921.38;;;11.05;92.71
13705;BME280;6924;52.122;9.952;2023-03-14T09:36:07;97922.47;;;10.97;92.95
13705;BME280;6924;52.122;9.952;2023-03-14T09:38:34;97918.88;;;11.00;93.71
13705;BME280;6924;52.122;9.952;2023-03-14T09:41:01;97930.56;;;10.99;93.33
13705;BME280;6924;52.122;9.952;2023-03-14T09:43:30;97920.94;;;11.03;95.35
13705;BME280;6924;52.122;9.952;2023-03-14T09:46:01;97927.47;;;11.07;94.85
13705;BME280;6924;52.122;9.952;2023-03-14T09:48:32;97913.34;;;11.11;94.94
13705;BME280;6924;52.122;9.952;2023-03-14T09:51:03;97928.16;;;11.31;94.23
13705;BME280;6924;52.122;9.952;2023-03-14T09:53:38;97916.38;;;11.55;92.55
13705;BME280;6924;52.122;9.952;2023-03-14T09:56:10;97919.09;;;11.82;93.12
13705;BME280;6924;52.122;9.952;2023-03-14T09:58:41;97925.63;;;11.86;90.81
13705;BME280;6924;52.122;9.952;2023-03-14T10:01:11;97922.41;;;11.88;91.53
13705;BME280;6924;52.122;9.952;2023-03-14T10:03:42;97927.19;;;11.84;90.84
13705;BME280;6924;52.122;9.952;2023-03-14T10:06:11;97929.19;;;11.79;92.49
13705;BME280;6924;52.122;9.952;2023-03-14T10:08:40;97929.56;;;11.78;91.21
13705;BME280;6924;52.122;9.952;2023-03-14T10:11:13;97931.72;;;11.88;91.06
13705;BME280;6924;52.122;9.952;2023-03-14T10:13:47;97925.63;;;11.86;90.01
13705;BME280;6924;52.122;9.952;2023-03-14T10:16:29;97926.16;;;11.95;89.43
13705;BME280;6924;52.122;9.952;2023-03-14T10:19:03;97915.97;;;12.28;89.60
13705;BME280;6924;52.122;9.952;2023-03-14T10:21:36;97914.59;;;12.63;88.47
13705;BME280;6924;52.122;9.952;2023-03-14T10:24:28;97916.91;;;13.02;89.83
13705;BME280;6924;52.122;9.952;2023-03-14T10:26:58;97923.34;;;12.95;82.08
13705;BME280;6924;52.122;9.952;2023-03-14T10:29:26;97923.75;;;12.94;85.19
13705;BME280;6924;52.122;9.952;2023-03-14T10:31:54;97919.31;;;13.00;84.19
13705;BME280;6924;52.122;9.952;2023-03-14T10:34:24;97927.44;;;13.01;84.18
13705;BME280;6924;52.122;9.952;2023-03-14T10:36:56;97912.78;;;12.89;83.42
13705;BME280;6924;52.122;9.952;2023-03-14T10:39:32;97918.41;;;12.85;83.91
13705;BME280;6924;52.122;9.952;2023-03-14T10:42:05;97926.16;;;12.92;84.78
13705;BME280;6924;52.122;9.952;2023-03-14T10:44:34;97918.50;;;12.96;83.78
13705;BME280;6924;52.122;9.952;2023-03-14T10:47:03;97914.84;;;12.95;82.57
13705;BME280;6924;52.122;9.952;2023-03-14T10:49:31;97916.41;;;12.89;83.01
13705;BME280;6924;52.122;9.952;2023-03-14T10:52:01;97917.13;;;12.75;81.53
13705;BME280;6924;52.122;9.952;2023-03-14T10:54:30;97920.34;;;12.70;81.49
13705;BME280;6924;52.122;9.952;2023-03-14T10:56:58;97918.66;;;12.62;81.81
13705;BME280;6924;52.122;9.952;2023-03-14T10:59:27;97908.13;;;12.59;81.33
13705;BME280;6924;52.122;9.952;2023-03-14T11:01:57;97916.28;;;12.68;83.97
13705;BME280;6924;52.122;9.952;2023-03-14T11:04:42;97916.28;;;12.71;82.69
13705;BME280;6924;52.122;9.952;2023-03-14T11:07:15;97912.75;;;12.85;83.83
13705;BME280;6924;52.122;9.952;2023-03-14T11:09:50;97911.19;;;12.95;84.25
13705;BME280;6924;52.122;9.952;2023-03-14T11:12:33;97914.50;;;13.04;82.97
13705;BME280;6924;52.122;9.952;2023-03-14T11:15:05;97920.28;;;13.26;81.04
13705;BME280;6924;52.122;9.952;2023-03-14T11:17:40;97926.03;;;13.33;80.02
13705;BME280;6924;52.122;9.952;2023-03-14T11:20:22;97914.66;;;13.29;79.06
13705;BME280;6924;52.122;9.952;2023-03-14T11:22:57;97918.25;;;13.22;79.67
13705;BME280;6924;52.122;9.952;2023-03-14T11:25:31;97921.03;;;13.15;82.33
13705;BME280;6924;52.122;9.952;2023-03-14T11:28:04;97920.63;;;13.10;84.46
13705;BME280;6924;52.122;9.952;2023-03-14T11:30:35;97922.94;;;12.90;85.16
13705;BME280;6924;52.122;9.952;2023-03-14T11:33:08;97928.09;;;12.77;88.01
13705;BME280;6924;52.122;9.952;2023-03-14T11:35:43;97943.38;;;12.65;91.77
13705;BME280;6924;52.122;9.952;2023-03-14T11:38:17;97940.31;;;12.36;96.76
13705;BME280;6924;52.122;9.952;2023-03-14T11:40:46;97945.09;;;12.29;100.00
13705;BME280;6924;52.122;9.952;2023-03-14T11:43:17;97932.09;;;12.24;100.00
13705;BME280;6924;52.122;9.952;2023-03-14T11:45:48;97925.25;;;12.29;100.00
13705;BME280;6924;52.122;9.952;2023-03-14T11:48:23;97933.78;;;12.32;100.00
13705;BME280;6924;52.122;9.952;2023-03-14T11:50:52;97947.31;;;12.50;100.00
13705;BME280;6924;52.122;9.952;2023-03-14T11:53:25;97958.22;;;12.48;99.79
13705;BME280;6924;52.122;9.952;2023-03-14T11:56:01;98012.09;;;12.10;96.68
13705;BME280;6924;52.122;9.952;2023-03-14T11:58:29;98080.41;;;10.72;94.35
13705;BME280;6924;52.122;9.952;2023-03-14T12:01:03;98103.00;;;8.40;100.00
13705;BME280;6924;52.122;9.952;2023-03-14T12:03:35;98109.75;;;7.18;100.00
13705;BME280;6924;52.122;9.952;2023-03-14T12:06:10;98140.13;;;6.54;100.00
13705;BME280;6924;52.122;9.952;2023-03-14T12:08:43;98142.09;;;6.08;100.00
13705;BME280;6924;52.122;9.952;2023-03-14T12:11:19;98159.97;;;5.83;100.00
13705;BME280;6924;52.122;9.952;2023-03-14T12:13:48;98177.13;;;5.60;100.00
13705;BME280;6924;52.122;9.952;2023-03-14T12:16:30;98180.56;;;5.36;100.00
13705;BME280;6924;52.122;9.952;2023-03-14T12:19:14;98186.19;;;5.36;100.00
13705;BME280;6924;52.122;9.952;2023-03-14T12:21:47;98211.94;;;5.29;100.00
13705;BME280;6924;52.122;9.952;2023-03-14T12:24:19;98216.69;;;5.29;100.00
13705;BME280;6924;52.122;9.952;2023-03-14T12:26:53;98233.75;;;5.15;100.00
13705;BME280;6924;52.122;9.952;2023-03-14T12:29:20;98243.97;;;5.11;100.00
13705;BME280;6924;52.122;9.952;2023-03-14T12:31:48;98262.00;;;4.92;100.00
13705;BME280;6924;52.122;9.952;2023-03-14T12:34:28;98292.88;;;4.58;100.00
13705;BME280;6924;52.122;9.952;2023-03-14T12:37:04;98305.38;;;4.17;100.00
13705;BME280;6924;52.122;9.952;2023-03-14T12:39:37;98315.44;;;4.18;100.00
13705;BME280;6924;52.122;9.952;2023-03-14T12:42:11;98323.31;;;4.16;100.00
13705;BME280;6924;52.122;9.952;2023-03-14T12:44:44;98349.25;;;3.90;100.00
13705;BME280;6924;52.122;9.952;2023-03-14T12:47:43;98366.00;;;3.81;100.00
13705;BME280;6924;52.122;9.952;2023-03-14T12:50:15;98367.56;;;3.56;100.00
13705;BME280;6924;52.122;9.952;2023-03-14T12:52:52;98377.53;;;3.40;100.00
13705;BME280;6924;52.122;9.952;2023-03-14T12:55:28;98393.34;;;3.44;100.00
13705;BME280;6924;52.122;9.952;2023-03-14T12:58:04;98413.38;;;3.38;100.00
13705;BME280;6924;52.122;9.952;2023-03-14T13:00:34;98417.13;;;3.33;100.00
13705;BME280;6924;52.122;9.952;2023-03-14T13:03:02;98426.72;;;3.18;100.00
13705;BME280;6924;52.122;9.952;2023-03-14T13:05:51;98434.00;;;3.28;100.00
13705;BME280;6924;52.122;9.952;2023-03-14T13:08:34;98445.69;;;3.07;100.00
13705;BME280;6924;52.122;9.952;2023-03-14T13:11:01;98451.50;;;3.11;100.00
13705;BME280;6924;52.122;9.952;2023-03-14T13:13:34;98474.81;;;3.15;100.00
13705;BME280;6924;52.122;9.952;2023-03-14T13:16:05;98495.91;;;3.21;100.00
13705;BME280;6924;52.122;9.952;2023-03-14T13:18:35;98517.69;;;3.10;100.00
13705;BME280;6924;52.122;9.952;2023-03-14T13:21:05;98530.47;;;3.25;100.00